Startpagina
METAR-TAF:

METAR-TAF

Vliegvelden :

Aeropuerto Capitán Av. Selin Zeitun Lopez

Riberalta, Bolivia

breedte: 11-00S, lengte: 066-07W, hoogte: 141 m

Actueel weer

Dit bericht is 48 minuten geleden gemaakt, om 12:00 UTC
Weinig wind
Temperatuur 22°C
Vochtigheid 94%
Druk 1017 hPa
Zicht: 1600 m
Gebroken wolken op 400 ft
Geheel bewolkt op 7000 ft
lichte motregen

METAR: SLRI 051200Z 00000KT 1600 -DZ BKN004 OVC070 22/21 Q1017

Tijdstip: 08:48 (12:48 UTC)


TAF: ontbreekt

Waarnemingen en weersverwachtingen van meer dan 4000 vliegvelden (METAR en TAF).

De beschikbare stations zijn de gele en rode punten op de kaart.

Ga met uw muis naar het station om de naam te zien.

Klik dan om waarnemingen en weersverwachtingen te zien.

kaart wijzigen: klik op de groene knoppen met een zwart kruis om in te zoomen, op de groene knop met een streepje om uit te zoomen of op de groene pijlen voor aangrenzende kaarten.


METAR-TAF: